sensor_id;sensor_type;location;lat;lon;timestamp;temperature;humidity
71047;SHT31;58703;48.978;8.982;2024-02-28T00:01:30;5.13;96.29
71047;SHT31;58703;48.978;8.982;2024-02-28T00:03:55;4.98;96.59
71047;SHT31;58703;48.978;8.982;2024-02-28T00:06:21;5.01;96.54
71047;SHT31;58703;48.978;8.982;2024-02-28T00:08:46;4.93;96.65
71047;SHT31;58703;48.978;8.982;2024-02-28T00:11:12;4.82;96.72
71047;SHT31;58703;48.978;8.982;2024-02-28T00:13:37;4.74;96.91
71047;SHT31;58703;48.978;8.982;2024-02-28T00:16:03;4.68;96.97
71047;SHT31;58703;48.978;8.982;2024-02-28T00:18:29;4.51;97.20
71047;SHT31;58703;48.978;8.982;2024-02-28T00:20:56;4.47;97.51
71047;SHT31;58703;48.978;8.982;2024-02-28T00:23:22;4.48;97.25
71047;SHT31;58703;48.978;8.982;2024-02-28T00:25:47;4.47;97.47
71047;SHT31;58703;48.978;8.982;2024-02-28T00:28:13;4.40;97.44
71047;SHT31;58703;48.978;8.982;2024-02-28T00:30:39;4.37;97.54
71047;SHT31;58703;48.978;8.982;2024-02-28T00:33:06;4.36;97.66
71047;SHT31;58703;48.978;8.982;2024-02-28T00:35:33;4.40;97.59
71047;SHT31;58703;48.978;8.982;2024-02-28T00:37:59;4.33;97.68
71047;SHT31;58703;48.978;8.982;2024-02-28T00:40:24;4.30;97.90
71047;SHT31;58703;48.978;8.982;2024-02-28T00:42:51;4.27;97.99
71047;SHT31;58703;48.978;8.982;2024-02-28T00:45:16;4.23;98.21
71047;SHT31;58703;48.978;8.982;2024-02-28T00:47:42;4.13;98.46
71047;SHT31;58703;48.978;8.982;2024-02-28T00:50:09;4.10;98.47
71047;SHT31;58703;48.978;8.982;2024-02-28T00:52:34;4.03;98.61
71047;SHT31;58703;48.978;8.982;2024-02-28T00:55:00;4.00;98.69
71047;SHT31;58703;48.978;8.982;2024-02-28T00:57:26;3.99;98.85
71047;SHT31;58703;48.978;8.982;2024-02-28T00:59:51;4.06;98.71
71047;SHT31;58703;48.978;8.982;2024-02-28T01:02:17;4.07;98.58
71047;SHT31;58703;48.978;8.982;2024-02-28T01:04:42;4.06;98.45
71047;SHT31;58703;48.978;8.982;2024-02-28T01:07:08;4.05;98.53
71047;SHT31;58703;48.978;8.982;2024-02-28T01:09:33;4.02;98.50
71047;SHT31;58703;48.978;8.982;2024-02-28T01:11:59;3.99;98.66
71047;SHT31;58703;48.978;8.982;2024-02-28T01:14:24;4.00;98.76
71047;SHT31;58703;48.978;8.982;2024-02-28T01:16:50;4.06;98.68
71047;SHT31;58703;48.978;8.982;2024-02-28T01:19:16;4.10;98.56
71047;SHT31;58703;48.978;8.982;2024-02-28T01:21:41;4.14;98.33
71047;SHT31;58703;48.978;8.982;2024-02-28T01:24:07;4.17;98.24
71047;SHT31;58703;48.978;8.982;2024-02-28T01:26:33;4.17;98.46
71047;SHT31;58703;48.978;8.982;2024-02-28T01:28:59;4.18;98.39
71047;SHT31;58703;48.978;8.982;2024-02-28T01:31:24;4.20;98.36
71047;SHT31;58703;48.978;8.982;2024-02-28T01:33:50;4.24;98.39
71047;SHT31;58703;48.978;8.982;2024-02-28T01:36:15;4.27;98.19
71047;SHT31;58703;48.978;8.982;2024-02-28T01:38:41;4.30;98.25
71047;SHT31;58703;48.978;8.982;2024-02-28T01:41:06;4.29;98.31
71047;SHT31;58703;48.978;8.982;2024-02-28T01:43:33;4.30;98.35
71047;SHT31;58703;48.978;8.982;2024-02-28T01:46:04;4.23;98.52
71047;SHT31;58703;48.978;8.982;2024-02-28T01:48:32;4.20;98.50
71047;SHT31;58703;48.978;8.982;2024-02-28T01:50:58;4.16;98.73
71047;SHT31;58703;48.978;8.982;2024-02-28T01:53:23;4.11;98.91
71047;SHT31;58703;48.978;8.982;2024-02-28T01:55:49;4.10;98.98
71047;SHT31;58703;48.978;8.982;2024-02-28T01:58:15;4.10;99.08
71047;SHT31;58703;48.978;8.982;2024-02-28T02:00:41;4.06;99.13
71047;SHT31;58703;48.978;8.982;2024-02-28T02:03:07;4.05;99.18
71047;SHT31;58703;48.978;8.982;2024-02-28T02:05:32;4.03;99.21
71047;SHT31;58703;48.978;8.982;2024-02-28T02:07:58;4.00;99.22
71047;SHT31;58703;48.978;8.982;2024-02-28T02:10:25;4.06;99.04
71047;SHT31;58703;48.978;8.982;2024-02-28T02:12:51;4.14;98.79
71047;SHT31;58703;48.978;8.982;2024-02-28T02:15:16;4.17;98.85
71047;SHT31;58703;48.978;8.982;2024-02-28T02:17:41;4.16;98.78
71047;SHT31;58703;48.978;8.982;2024-02-28T02:20:10;4.16;98.92
71047;SHT31;58703;48.978;8.982;2024-02-28T02:22:37;4.18;98.91
71047;SHT31;58703;48.978;8.982;2024-02-28T02:25:06;4.18;98.97
71047;SHT31;58703;48.978;8.982;2024-02-28T02:27:32;4.23;98.78
71047;SHT31;58703;48.978;8.982;2024-02-28T02:29:57;4.26;98.71
71047;SHT31;58703;48.978;8.982;2024-02-28T02:32:23;4.20;98.73
71047;SHT31;58703;48.978;8.982;2024-02-28T02:34:49;4.24;98.61
71047;SHT31;58703;48.978;8.982;2024-02-28T02:37:14;4.21;98.76
71047;SHT31;58703;48.978;8.982;2024-02-28T02:39:40;4.18;99.00
71047;SHT31;58703;48.978;8.982;2024-02-28T02:42:06;4.24;98.87
71047;SHT31;58703;48.978;8.982;2024-02-28T02:44:31;4.24;98.79
71047;SHT31;58703;48.978;8.982;2024-02-28T02:46:57;4.26;98.84
71047;SHT31;58703;48.978;8.982;2024-02-28T02:49:22;4.26;98.84
71047;SHT31;58703;48.978;8.982;2024-02-28T02:51:48;4.29;98.82
71047;SHT31;58703;48.978;8.982;2024-02-28T02:54:13;4.27;98.74
71047;SHT31;58703;48.978;8.982;2024-02-28T02:56:42;4.29;98.81
71047;SHT31;58703;48.978;8.982;2024-02-28T02:59:10;4.29;98.72
71047;SHT31;58703;48.978;8.982;2024-02-28T03:01:37;4.26;99.08
71047;SHT31;58703;48.978;8.982;2024-02-28T03:04:02;4.24;98.98
71047;SHT31;58703;48.978;8.982;2024-02-28T03:06:28;4.26;98.97
71047;SHT31;58703;48.978;8.982;2024-02-28T03:08:53;4.29;99.15
71047;SHT31;58703;48.978;8.982;2024-02-28T03:11:19;4.34;98.85
71047;SHT31;58703;48.978;8.982;2024-02-28T03:13:44;4.38;98.60
71047;SHT31;58703;48.978;8.982;2024-02-28T03:16:10;4.40;98.79
71047;SHT31;58703;48.978;8.982;2024-02-28T03:18:36;4.40;98.60
71047;SHT31;58703;48.978;8.982;2024-02-28T03:21:03;4.40;98.51
71047;SHT31;58703;48.978;8.982;2024-02-28T03:23:29;4.40;98.55
71047;SHT31;58703;48.978;8.982;2024-02-28T03:25:54;4.36;98.55
71047;SHT31;58703;48.978;8.982;2024-02-28T03:28:20;4.33;98.80
71047;SHT31;58703;48.978;8.982;2024-02-28T03:33:22;4.37;98.60
71047;SHT31;58703;48.978;8.982;2024-02-28T03:35:48;4.38;98.51
71047;SHT31;58703;48.978;8.982;2024-02-28T03:38:15;4.41;98.41
71047;SHT31;58703;48.978;8.982;2024-02-28T03:40:42;4.44;98.38
71047;SHT31;58703;48.978;8.982;2024-02-28T03:43:09;4.46;98.36
71047;SHT31;58703;48.978;8.982;2024-02-28T03:45:39;4.50;98.27
71047;SHT31;58703;48.978;8.982;2024-02-28T03:48:06;4.56;98.10
71047;SHT31;58703;48.978;8.982;2024-02-28T03:50:33;4.62;98.09
71047;SHT31;58703;48.978;8.982;2024-02-28T03:52:59;4.64;97.97
71047;SHT31;58703;48.978;8.982;2024-02-28T03:55:25;4.69;97.59
71047;SHT31;58703;48.978;8.982;2024-02-28T03:57:51;4.77;97.49
71047;SHT31;58703;48.978;8.982;2024-02-28T04:00:17;4.78;97.19
71047;SHT31;58703;48.978;8.982;2024-02-28T04:02:44;4.87;97.06
71047;SHT31;58703;48.978;8.982;2024-02-28T04:05:11;4.82;96.85
71047;SHT31;58703;48.978;8.982;2024-02-28T04:07:37;4.74;96.93
71047;SHT31;58703;48.978;8.982;2024-02-28T04:10:03;4.72;97.05
71047;SHT31;58703;48.978;8.982;2024-02-28T04:12:31;4.71;97.16
71047;SHT31;58703;48.978;8.982;2024-02-28T04:14:59;4.67;97.29
71047;SHT31;58703;48.978;8.982;2024-02-28T04:17:26;4.58;97.79
71047;SHT31;58703;48.978;8.982;2024-02-28T04:19:53;4.61;97.99
71047;SHT31;58703;48.978;8.982;2024-02-28T04:22:19;4.64;98.00
71047;SHT31;58703;48.978;8.982;2024-02-28T04:24:46;4.58;97.81
71047;SHT31;58703;48.978;8.982;2024-02-28T04:27:12;4.58;98.03
71047;SHT31;58703;48.978;8.982;2024-02-28T04:29:39;4.58;97.84
71047;SHT31;58703;48.978;8.982;2024-02-28T04:32:06;4.56;97.66
71047;SHT31;58703;48.978;8.982;2024-02-28T04:34:32;4.58;97.83
71047;SHT31;58703;48.978;8.982;2024-02-28T04:36:59;4.48;98.20
71047;SHT31;58703;48.978;8.982;2024-02-28T04:39:24;4.44;98.58
71047;SHT31;58703;48.978;8.982;2024-02-28T04:41:50;4.51;98.46
71047;SHT31;58703;48.978;8.982;2024-02-28T04:44:15;4.53;98.37
71047;SHT31;58703;48.978;8.982;2024-02-28T04:46:43;4.54;98.16
71047;SHT31;58703;48.978;8.982;2024-02-28T04:49:10;4.48;98.26
71047;SHT31;58703;48.978;8.982;2024-02-28T04:51:37;4.53;98.14
71047;SHT31;58703;48.978;8.982;2024-02-28T04:54:04;4.53;98.18
71047;SHT31;58703;48.978;8.982;2024-02-28T04:56:30;4.62;97.88
71047;SHT31;58703;48.978;8.982;2024-02-28T04:58:57;4.62;97.98
71047;SHT31;58703;48.978;8.982;2024-02-28T05:01:23;4.65;97.97
71047;SHT31;58703;48.978;8.982;2024-02-28T05:03:50;4.72;97.46
71047;SHT31;58703;48.978;8.982;2024-02-28T05:06:17;4.77;97.08
71047;SHT31;58703;48.978;8.982;2024-02-28T05:08:42;4.81;97.26
71047;SHT31;58703;48.978;8.982;2024-02-28T05:11:09;4.84;96.69
71047;SHT31;58703;48.978;8.982;2024-02-28T05:13:36;4.88;97.05
71047;SHT31;58703;48.978;8.982;2024-02-28T05:16:03;4.84;96.93
71047;SHT31;58703;48.978;8.982;2024-02-28T05:18:29;4.72;97.27
71047;SHT31;58703;48.978;8.982;2024-02-28T05:20:56;4.71;97.41
71047;SHT31;58703;48.978;8.982;2024-02-28T05:23:23;4.71;97.70
71047;SHT31;58703;48.978;8.982;2024-02-28T05:25:50;4.81;97.51
71047;SHT31;58703;48.978;8.982;2024-02-28T05:28:16;4.89;96.84
71047;SHT31;58703;48.978;8.982;2024-02-28T05:30:44;4.82;96.91
71047;SHT31;58703;48.978;8.982;2024-02-28T05:33:10;4.78;96.89
71047;SHT31;58703;48.978;8.982;2024-02-28T05:35:36;4.74;97.13
71047;SHT31;58703;48.978;8.982;2024-02-28T05:38:03;4.69;97.21
71047;SHT31;58703;48.978;8.982;2024-02-28T05:40:29;4.68;97.17
71047;SHT31;58703;48.978;8.982;2024-02-28T05:42:56;4.71;97.32
71047;SHT31;58703;48.978;8.982;2024-02-28T05:45:22;4.68;97.10
71047;SHT31;58703;48.978;8.982;2024-02-28T05:47:49;4.65;97.47
71047;SHT31;58703;48.978;8.982;2024-02-28T05:50:16;4.62;97.67
71047;SHT31;58703;48.978;8.982;2024-02-28T05:52:42;4.62;97.57
71047;SHT31;58703;48.978;8.982;2024-02-28T05:55:09;4.57;97.62
71047;SHT31;58703;48.978;8.982;2024-02-28T05:57:36;4.57;97.56
71047;SHT31;58703;48.978;8.982;2024-02-28T06:00:04;4.60;97.52
71047;SHT31;58703;48.978;8.982;2024-02-28T06:02:37;4.61;97.54
71047;SHT31;58703;48.978;8.982;2024-02-28T06:05:05;4.57;97.54
71047;SHT31;58703;48.978;8.982;2024-02-28T06:07:31;4.58;97.41
71047;SHT31;58703;48.978;8.982;2024-02-28T06:09:58;4.62;97.12
71047;SHT31;58703;48.978;8.982;2024-02-28T06:12:26;4.68;97.05
71047;SHT31;58703;48.978;8.982;2024-02-28T06:14:53;4.74;97.07
71047;SHT31;58703;48.978;8.982;2024-02-28T06:17:24;4.81;96.36
71047;SHT31;58703;48.978;8.982;2024-02-28T06:19:51;4.78;96.31
71047;SHT31;58703;48.978;8.982;2024-02-28T06:22:18;4.77;96.16
71047;SHT31;58703;48.978;8.982;2024-02-28T06:24:46;4.79;96.45
71047;SHT31;58703;48.978;8.982;2024-02-28T06:27:13;4.79;96.39
71047;SHT31;58703;48.978;8.982;2024-02-28T06:29:39;4.85;95.93
71047;SHT31;58703;48.978;8.982;2024-02-28T06:32:06;4.93;96.06
71047;SHT31;58703;48.978;8.982;2024-02-28T06:34:33;4.93;95.65
71047;SHT31;58703;48.978;8.982;2024-02-28T06:37:00;5.05;95.79
71047;SHT31;58703;48.978;8.982;2024-02-28T06:39:25;5.09;95.58
71047;SHT31;58703;48.978;8.982;2024-02-28T06:41:55;5.11;95.53
71047;SHT31;58703;48.978;8.982;2024-02-28T06:44:21;5.08;95.29
71047;SHT31;58703;48.978;8.982;2024-02-28T06:46:48;5.13;95.26
71047;SHT31;58703;48.978;8.982;2024-02-28T06:49:15;5.35;94.91
71047;SHT31;58703;48.978;8.982;2024-02-28T06:51:45;5.43;94.72
71047;SHT31;58703;48.978;8.982;2024-02-28T06:54:12;5.35;94.46
71047;SHT31;58703;48.978;8.982;2024-02-28T06:56:38;5.47;94.35
71047;SHT31;58703;48.978;8.982;2024-02-28T06:59:04;5.49;94.15
71047;SHT31;58703;48.978;8.982;2024-02-28T07:01:32;5.52;93.78
71047;SHT31;58703;48.978;8.982;2024-02-28T07:04:00;5.54;93.72
71047;SHT31;58703;48.978;8.982;2024-02-28T07:06:27;5.47;93.83
71047;SHT31;58703;48.978;8.982;2024-02-28T07:08:53;5.30;94.23
71047;SHT31;58703;48.978;8.982;2024-02-28T07:11:20;5.23;94.77
71047;SHT31;58703;48.978;8.982;2024-02-28T07:13:48;5.20;95.36
71047;SHT31;58703;48.978;8.982;2024-02-28T07:16:15;5.28;95.28
71047;SHT31;58703;48.978;8.982;2024-02-28T07:18:42;5.38;94.82
71047;SHT31;58703;48.978;8.982;2024-02-28T07:21:08;5.36;94.88
71047;SHT31;58703;48.978;8.982;2024-02-28T07:23:34;5.63;94.64
71047;SHT31;58703;48.978;8.982;2024-02-28T07:26:01;5.86;93.84
71047;SHT31;58703;48.978;8.982;2024-02-28T07:28:27;5.78;93.87
71047;SHT31;58703;48.978;8.982;2024-02-28T07:30:55;5.73;93.94
71047;SHT31;58703;48.978;8.982;2024-02-28T07:33:22;5.73;94.18
71047;SHT31;58703;48.978;8.982;2024-02-28T07:35:49;5.73;93.75
71047;SHT31;58703;48.978;8.982;2024-02-28T07:38:16;5.74;94.04
71047;SHT31;58703;48.978;8.982;2024-02-28T07:40:48;5.77;93.72
71047;SHT31;58703;48.978;8.982;2024-02-28T07:43:13;5.64;93.75
71047;SHT31;58703;48.978;8.982;2024-02-28T07:45:40;5.49;93.86
71047;SHT31;58703;48.978;8.982;2024-02-28T07:48:07;5.47;94.13
71047;SHT31;58703;48.978;8.982;2024-02-28T07:50:34;5.53;93.96
71047;SHT31;58703;48.978;8.982;2024-02-28T07:53:00;5.70;94.00
71047;SHT31;58703;48.978;8.982;2024-02-28T07:55:27;5.91;92.66
71047;SHT31;58703;48.978;8.982;2024-02-28T07:57:53;5.97;92.56
71047;SHT31;58703;48.978;8.982;2024-02-28T08:00:20;5.95;93.02
71047;SHT31;58703;48.978;8.982;2024-02-28T08:02:47;5.84;92.82
71047;SHT31;58703;48.978;8.982;2024-02-28T08:05:13;5.66;93.71
71047;SHT31;58703;48.978;8.982;2024-02-28T08:07:42;5.74;94.61
71047;SHT31;58703;48.978;8.982;2024-02-28T08:10:08;5.86;93.54
71047;SHT31;58703;48.978;8.982;2024-02-28T08:12:36;5.81;93.73
71047;SHT31;58703;48.978;8.982;2024-02-28T08:15:03;5.81;93.97
71047;SHT31;58703;48.978;8.982;2024-02-28T08:17:29;5.83;93.00
71047;SHT31;58703;48.978;8.982;2024-02-28T08:19:56;5.83;92.65
71047;SHT31;58703;48.978;8.982;2024-02-28T08:22:22;5.87;92.85
71047;SHT31;58703;48.978;8.982;2024-02-28T08:24:55;6.01;92.58
71047;SHT31;58703;48.978;8.982;2024-02-28T08:27:20;6.10;92.35
71047;SHT31;58703;48.978;8.982;2024-02-28T08:29:47;6.01;92.45
71047;SHT31;58703;48.978;8.982;2024-02-28T08:32:13;6.07;92.02
71047;SHT31;58703;48.978;8.982;2024-02-28T08:34:43;6.15;92.52
71047;SHT31;58703;48.978;8.982;2024-02-28T08:37:12;6.18;92.05
71047;SHT31;58703;48.978;8.982;2024-02-28T08:39:40;6.35;91.39
71047;SHT31;58703;48.978;8.982;2024-02-28T08:42:06;6.41;91.38
71047;SHT31;58703;48.978;8.982;2024-02-28T08:44:32;6.32;91.64
71047;SHT31;58703;48.978;8.982;2024-02-28T08:46:59;6.42;91.15
71047;SHT31;58703;48.978;8.982;2024-02-28T08:49:25;6.49;91.04
71047;SHT31;58703;48.978;8.982;2024-02-28T08:51:53;6.55;90.82
71047;SHT31;58703;48.978;8.982;2024-02-28T08:54:20;6.38;91.20
71047;SHT31;58703;48.978;8.982;2024-02-28T08:56:47;6.65;90.71
71047;SHT31;58703;48.978;8.982;2024-02-28T08:59:14;6.55;90.67
71047;SHT31;58703;48.978;8.982;2024-02-28T09:01:40;6.61;91.28
71047;SHT31;58703;48.978;8.982;2024-02-28T09:04:09;6.64;90.37
71047;SHT31;58703;48.978;8.982;2024-02-28T09:06:35;6.92;89.79
71047;SHT31;58703;48.978;8.982;2024-02-28T09:09:01;7.01;89.22
71047;SHT31;58703;48.978;8.982;2024-02-28T09:11:27;6.71;89.60
71047;SHT31;58703;48.978;8.982;2024-02-28T09:13:54;6.83;90.28
71047;SHT31;58703;48.978;8.982;2024-02-28T09:16:26;7.30;88.59
71047;SHT31;58703;48.978;8.982;2024-02-28T09:18:52;7.74;87.78
71047;SHT31;58703;48.978;8.982;2024-02-28T09:21:19;7.78;87.22
71047;SHT31;58703;48.978;8.982;2024-02-28T09:23:46;7.96;87.02
71047;SHT31;58703;48.978;8.982;2024-02-28T09:26:13;8.07;85.87
71047;SHT31;58703;48.978;8.982;2024-02-28T09:28:41;7.41;87.32
71047;SHT31;58703;48.978;8.982;2024-02-28T09:31:07;7.74;87.21
71047;SHT31;58703;48.978;8.982;2024-02-28T09:33:34;8.13;85.65
71047;SHT31;58703;48.978;8.982;2024-02-28T09:36:02;8.06;85.17
71047;SHT31;58703;48.978;8.982;2024-02-28T09:38:29;7.85;85.46
71047;SHT31;58703;48.978;8.982;2024-02-28T09:40:56;7.59;86.91
71047;SHT31;58703;48.978;8.982;2024-02-28T09:43:38;7.64;86.82
71047;SHT31;58703;48.978;8.982;2024-02-28T09:46:26;7.27;87.74
71047;SHT31;58703;48.978;8.982;2024-02-28T09:49:07;7.31;87.39
71047;SHT31;58703;48.978;8.982;2024-02-28T09:51:34;7.37;87.44
71047;SHT31;58703;48.978;8.982;2024-02-28T09:54:02;7.86;86.43
71047;SHT31;58703;48.978;8.982;2024-02-28T09:56:31;8.16;85.43
71047;SHT31;58703;48.978;8.982;2024-02-28T09:58:59;7.75;85.96
71047;SHT31;58703;48.978;8.982;2024-02-28T10:01:26;7.55;86.76
71047;SHT31;58703;48.978;8.982;2024-02-28T10:03:53;7.43;87.30
71047;SHT31;58703;48.978;8.982;2024-02-28T10:06:21;7.65;86.93
71047;SHT31;58703;48.978;8.982;2024-02-28T10:08:49;7.88;86.11
71047;SHT31;58703;48.978;8.982;2024-02-28T10:11:23;7.52;86.57
71047;SHT31;58703;48.978;8.982;2024-02-28T10:13:50;7.41;87.04
71047;SHT31;58703;48.978;8.982;2024-02-28T10:16:20;7.52;87.11
71047;SHT31;58703;48.978;8.982;2024-02-28T10:18:45;7.88;86.95
71047;SHT31;58703;48.978;8.982;2024-02-28T10:21:14;8.57;84.18
71047;SHT31;58703;48.978;8.982;2024-02-28T10:23:46;8.83;83.06
71047;SHT31;58703;48.978;8.982;2024-02-28T10:26:13;8.77;81.37
71047;SHT31;58703;48.978;8.982;2024-02-28T10:28:40;8.71;81.37
71047;SHT31;58703;48.978;8.982;2024-02-28T10:31:20;8.89;81.33
71047;SHT31;58703;48.978;8.982;2024-02-28T10:33:48;9.31;81.83
71047;SHT31;58703;48.978;8.982;2024-02-28T10:36:15;9.53;80.20
71047;SHT31;58703;48.978;8.982;2024-02-28T10:38:42;9.03;82.03
71047;SHT31;58703;48.978;8.982;2024-02-28T10:41:09;8.97;80.51
71047;SHT31;58703;48.978;8.982;2024-02-28T10:43:40;8.94;81.88
71047;SHT31;58703;48.978;8.982;2024-02-28T10:46:08;8.81;80.68
71047;SHT31;58703;48.978;8.982;2024-02-28T10:48:35;8.87;82.32
71047;SHT31;58703;48.978;8.982;2024-02-28T10:51:04;8.88;81.12
71047;SHT31;58703;48.978;8.982;2024-02-28T10:53:41;9.00;82.05
71047;SHT31;58703;48.978;8.982;2024-02-28T10:56:11;8.95;82.33
71047;SHT31;58703;48.978;8.982;2024-02-28T10:58:48;8.85;81.40
71047;SHT31;58703;48.978;8.982;2024-02-28T11:01:17;8.85;82.10
71047;SHT31;58703;48.978;8.982;2024-02-28T11:03:44;8.80;80.79
71047;SHT31;58703;48.978;8.982;2024-02-28T11:06:22;8.88;81.69
71047;SHT31;58703;48.978;8.982;2024-02-28T11:08:49;8.89;82.20
71047;SHT31;58703;48.978;8.982;2024-02-28T11:11:21;8.60;80.84
71047;SHT31;58703;48.978;8.982;2024-02-28T11:13:54;8.47;81.71
71047;SHT31;58703;48.978;8.982;2024-02-28T11:16:39;8.36;82.70
71047;SHT31;58703;48.978;8.982;2024-02-28T11:19:20;8.43;82.06
71047;SHT31;58703;48.978;8.982;2024-02-28T11:21:55;8.14;83.45
71047;SHT31;58703;48.978;8.982;2024-02-28T11:24:31;8.17;83.00
71047;SHT31;58703;48.978;8.982;2024-02-28T11:27:02;7.99;83.65
71047;SHT31;58703;48.978;8.982;2024-02-28T11:29:33;8.06;83.90
71047;SHT31;58703;48.978;8.982;2024-02-28T11:31:59;8.36;83.32
71047;SHT31;58703;48.978;8.982;2024-02-28T11:34:26;8.47;81.92
71047;SHT31;58703;48.978;8.982;2024-02-28T11:36:53;8.40;82.25
71047;SHT31;58703;48.978;8.982;2024-02-28T11:39:22;8.46;82.42
71047;SHT31;58703;48.978;8.982;2024-02-28T11:41:52;8.57;81.99
71047;SHT31;58703;48.978;8.982;2024-02-28T11:44:19;8.80;81.81
71047;SHT31;58703;48.978;8.982;2024-02-28T11:46:46;8.89;80.44
71047;SHT31;58703;48.978;8.982;2024-02-28T11:49:13;9.11;80.84
71047;SHT31;58703;48.978;8.982;2024-02-28T11:51:45;9.50;80.12
71047;SHT31;58703;48.978;8.982;2024-02-28T11:54:11;9.62;79.97
71047;SHT31;58703;48.978;8.982;2024-02-28T11:56:42;9.66;77.96
71047;SHT31;58703;48.978;8.982;2024-02-28T11:59:08;9.29;78.34
71047;SHT31;58703;48.978;8.982;2024-02-28T12:01:42;9.00;79.76
71047;SHT31;58703;48.978;8.982;2024-02-28T12:04:11;8.43;80.45
71047;SHT31;58703;48.978;8.982;2024-02-28T12:06:41;8.22;81.30
71047;SHT31;58703;48.978;8.982;2024-02-28T12:09:11;8.03;81.71
71047;SHT31;58703;48.978;8.982;2024-02-28T12:11:39;8.05;82.03
71047;SHT31;58703;48.978;8.982;2024-02-28T12:14:09;7.99;82.15
71047;SHT31;58703;48.978;8.982;2024-02-28T12:16:39;7.72;83.92
71047;SHT31;58703;48.978;8.982;2024-02-28T12:19:11;7.85;83.38
71047;SHT31;58703;48.978;8.982;2024-02-28T12:21:40;7.78;82.68
71047;SHT31;58703;48.978;8.982;2024-02-28T12:24:10;7.99;82.61
71047;SHT31;58703;48.978;8.982;2024-02-28T12:26:40;7.96;82.55
71047;SHT31;58703;48.978;8.982;2024-02-28T12:29:06;7.93;82.62
71047;SHT31;58703;48.978;8.982;2024-02-28T12:31:33;8.07;83.00
71047;SHT31;58703;48.978;8.982;2024-02-28T12:34:00;8.40;81.86
71047;SHT31;58703;48.978;8.982;2024-02-28T12:36:26;8.89;80.49
71047;SHT31;58703;48.978;8.982;2024-02-28T12:38:53;8.77;80.49
71047;SHT31;58703;48.978;8.982;2024-02-28T12:41:20;8.63;81.11
71047;SHT31;58703;48.978;8.982;2024-02-28T12:43:48;8.44;81.28
71047;SHT31;58703;48.978;8.982;2024-02-28T12:46:15;8.29;81.73
71047;SHT31;58703;48.978;8.982;2024-02-28T12:48:41;8.36;82.01
71047;SHT31;58703;48.978;8.982;2024-02-28T12:51:11;8.43;81.36
71047;SHT31;58703;48.978;8.982;2024-02-28T12:53:45;8.75;80.21
71047;SHT31;58703;48.978;8.982;2024-02-28T12:56:12;8.97;78.97
71047;SHT31;58703;48.978;8.982;2024-02-28T12:58:39;9.50;77.80
71047;SHT31;58703;48.978;8.982;2024-02-28T13:01:06;10.69;74.82
71047;SHT31;58703;48.978;8.982;2024-02-28T13:03:35;11.40;72.75
71047;SHT31;58703;48.978;8.982;2024-02-28T13:06:00;12.11;70.58
71047;SHT31;58703;48.978;8.982;2024-02-28T13:08:27;11.78;70.18
71047;SHT31;58703;48.978;8.982;2024-02-28T13:10:54;12.10;69.95
71047;SHT31;58703;48.978;8.982;2024-02-28T13:13:21;11.18;72.14
71047;SHT31;58703;48.978;8.982;2024-02-28T13:15:47;10.65;73.80
71047;SHT31;58703;48.978;8.982;2024-02-28T13:18:14;10.13;75.31
71047;SHT31;58703;48.978;8.982;2024-02-28T13:20:41;9.89;76.65
71047;SHT31;58703;48.978;8.982;2024-02-28T13:23:08;10.03;76.21
71047;SHT31;58703;48.978;8.982;2024-02-28T13:25:36;9.82;75.73
71047;SHT31;58703;48.978;8.982;2024-02-28T13:28:03;9.48;76.59
71047;SHT31;58703;48.978;8.982;2024-02-28T13:30:30;9.69;77.61
71047;SHT31;58703;48.978;8.982;2024-02-28T13:32:57;9.96;76.64
71047;SHT31;58703;48.978;8.982;2024-02-28T13:35:25;10.51;74.15
71047;SHT31;58703;48.978;8.982;2024-02-28T13:37:53;10.36;73.91
71047;SHT31;58703;48.978;8.982;2024-02-28T13:40:21;11.11;72.91
71047;SHT31;58703;48.978;8.982;2024-02-28T13:42:48;12.56;68.06
71047;SHT31;58703;48.978;8.982;2024-02-28T13:45:15;11.66;69.85
71047;SHT31;58703;48.978;8.982;2024-02-28T13:47:40;12.29;68.37
71047;SHT31;58703;48.978;8.982;2024-02-28T13:50:07;13.03;66.03
71047;SHT31;58703;48.978;8.982;2024-02-28T13:52:36;12.85;66.06
71047;SHT31;58703;48.978;8.982;2024-02-28T13:55:03;13.28;64.05
71047;SHT31;58703;48.978;8.982;2024-02-28T13:57:30;12.36;66.53
71047;SHT31;58703;48.978;8.982;2024-02-28T13:59:56;12.35;65.88
71047;SHT31;58703;48.978;8.982;2024-02-28T14:02:22;11.74;68.35
71047;SHT31;58703;48.978;8.982;2024-02-28T14:04:54;12.28;67.72
71047;SHT31;58703;48.978;8.982;2024-02-28T14:07:21;11.20;69.91
71047;SHT31;58703;48.978;8.982;2024-02-28T14:09:48;10.98;70.81
71047;SHT31;58703;48.978;8.982;2024-02-28T14:12:13;10.79;71.77
71047;SHT31;58703;48.978;8.982;2024-02-28T14:14:40;10.54;72.05
71047;SHT31;58703;48.978;8.982;2024-02-28T14:17:07;10.69;72.74
71047;SHT31;58703;48.978;8.982;2024-02-28T14:19:33;11.13;70.35
71047;SHT31;58703;48.978;8.982;2024-02-28T14:22:03;11.57;69.63
71047;SHT31;58703;48.978;8.982;2024-02-28T14:24:31;12.26;68.24
71047;SHT31;58703;48.978;8.982;2024-02-28T14:26:58;13.64;64.68
71047;SHT31;58703;48.978;8.982;2024-02-28T14:29:24;12.93;65.26
71047;SHT31;58703;48.978;8.982;2024-02-28T14:31:51;12.79;65.34
71047;SHT31;58703;48.978;8.982;2024-02-28T14:34:19;12.24;66.28
71047;SHT31;58703;48.978;8.982;2024-02-28T14:36:47;12.10;67.75
71047;SHT31;58703;48.978;8.982;2024-02-28T14:39:15;12.26;67.02
71047;SHT31;58703;48.978;8.982;2024-02-28T14:41:45;12.93;65.13
71047;SHT31;58703;48.978;8.982;2024-02-28T14:44:11;12.69;64.85
71047;SHT31;58703;48.978;8.982;2024-02-28T14:46:38;12.25;66.13
71047;SHT31;58703;48.978;8.982;2024-02-28T14:49:04;11.37;68.88
71047;SHT31;58703;48.978;8.982;2024-02-28T14:51:30;11.57;68.07
71047;SHT31;58703;48.978;8.982;2024-02-28T14:53:57;12.05;66.64
71047;SHT31;58703;48.978;8.982;2024-02-28T14:56:23;12.38;65.54
71047;SHT31;58703;48.978;8.982;2024-02-28T14:58:50;12.69;65.52
71047;SHT31;58703;48.978;8.982;2024-02-28T15:01:18;13.54;63.83
71047;SHT31;58703;48.978;8.982;2024-02-28T15:03:44;13.11;64.25
71047;SHT31;58703;48.978;8.982;2024-02-28T15:06:13;11.88;66.70
71047;SHT31;58703;48.978;8.982;2024-02-28T15:08:41;11.97;67.44
71047;SHT31;58703;48.978;8.982;2024-02-28T15:11:08;11.08;70.12
71047;SHT31;58703;48.978;8.982;2024-02-28T15:13:35;11.50;69.16
71047;SHT31;58703;48.978;8.982;2024-02-28T15:16:01;11.37;69.45
71047;SHT31;58703;48.978;8.982;2024-02-28T15:18:27;11.71;68.99
71047;SHT31;58703;48.978;8.982;2024-02-28T15:20:54;12.38;67.45
71047;SHT31;58703;48.978;8.982;2024-02-28T15:23:22;12.70;65.74
71047;SHT31;58703;48.978;8.982;2024-02-28T15:25:49;11.66;68.38
71047;SHT31;58703;48.978;8.982;2024-02-28T15:28:21;11.78;68.91
71047;SHT31;58703;48.978;8.982;2024-02-28T15:30:49;10.95;70.91
71047;SHT31;58703;48.978;8.982;2024-02-28T15:33:15;10.34;71.99
71047;SHT31;58703;48.978;8.982;2024-02-28T15:35:42;10.01;73.18
71047;SHT31;58703;48.978;8.982;2024-02-28T15:38:08;9.91;73.68
71047;SHT31;58703;48.978;8.982;2024-02-28T15:40:35;10.01;73.62
71047;SHT31;58703;48.978;8.982;2024-02-28T15:43:02;10.50;72.42
71047;SHT31;58703;48.978;8.982;2024-02-28T15:45:27;11.22;70.67